sensor_id;sensor_type;location;lat;lon;timestamp;P1;durP1;ratioP1;P2;durP2;ratioP2
45863;SDS011;31579;52.354;16.974;2023-03-11T00:03:02;29.20;;;14.90;;
45863;SDS011;31579;52.354;16.974;2023-03-11T00:08:02;29.20;;;14.90;;
45863;SDS011;31579;52.354;16.974;2023-03-11T00:13:02;18.50;;;10.70;;
45863;SDS011;31579;52.354;16.974;2023-03-11T00:18:02;18.50;;;10.70;;
45863;SDS011;31579;52.354;16.974;2023-03-11T00:23:02;23.40;;;12.90;;
45863;SDS011;31579;52.354;16.974;2023-03-11T00:28:02;23.40;;;12.90;;
45863;SDS011;31579;52.354;16.974;2023-03-11T00:33:02;23.30;;;12.60;;
45863;SDS011;31579;52.354;16.974;2023-03-11T00:38:06;23.30;;;12.60;;
45863;SDS011;31579;52.354;16.974;2023-03-11T00:43:02;20.10;;;10.20;;
45863;SDS011;31579;52.354;16.974;2023-03-11T00:48:02;20.10;;;10.20;;
45863;SDS011;31579;52.354;16.974;2023-03-11T00:53:02;19.20;;;10.30;;
45863;SDS011;31579;52.354;16.974;2023-03-11T00:58:03;19.20;;;10.30;;
45863;SDS011;31579;52.354;16.974;2023-03-11T01:03:02;19.90;;;10.40;;
45863;SDS011;31579;52.354;16.974;2023-03-11T01:08:02;19.90;;;10.40;;
45863;SDS011;31579;52.354;16.974;2023-03-11T01:13:02;17.00;;;9.20;;
45863;SDS011;31579;52.354;16.974;2023-03-11T01:18:02;17.00;;;9.20;;
45863;SDS011;31579;52.354;16.974;2023-03-11T01:23:02;18.30;;;9.00;;
45863;SDS011;31579;52.354;16.974;2023-03-11T01:28:05;18.30;;;9.00;;
45863;SDS011;31579;52.354;16.974;2023-03-11T01:33:03;18.30;;;9.00;;
45863;SDS011;31579;52.354;16.974;2023-03-11T01:38:03;18.30;;;9.00;;
45863;SDS011;31579;52.354;16.974;2023-03-11T01:43:04;16.90;;;9.80;;
45863;SDS011;31579;52.354;16.974;2023-03-11T01:48:03;16.90;;;9.80;;
45863;SDS011;31579;52.354;16.974;2023-03-11T01:53:03;18.80;;;10.60;;
45863;SDS011;31579;52.354;16.974;2023-03-11T01:58:06;18.80;;;10.60;;
45863;SDS011;31579;52.354;16.974;2023-03-11T02:03:06;17.80;;;10.10;;
45863;SDS011;31579;52.354;16.974;2023-03-11T02:08:03;17.80;;;10.10;;
45863;SDS011;31579;52.354;16.974;2023-03-11T02:13:03;18.90;;;10.00;;
45863;SDS011;31579;52.354;16.974;2023-03-11T02:29:17;15.50;;;9.00;;
45863;SDS011;31579;52.354;16.974;2023-03-11T02:44:17;15.70;;;8.70;;
45863;SDS011;31579;52.354;16.974;2023-03-11T02:49:18;16.40;;;9.50;;
45863;SDS011;31579;52.354;16.974;2023-03-11T02:54:17;16.40;;;9.50;;
45863;SDS011;31579;52.354;16.974;2023-03-11T02:59:17;15.80;;;9.90;;
45863;SDS011;31579;52.354;16.974;2023-03-11T03:04:17;15.80;;;9.90;;
45863;SDS011;31579;52.354;16.974;2023-03-11T03:09:17;13.50;;;8.60;;
45863;SDS011;31579;52.354;16.974;2023-03-11T03:14:17;13.50;;;8.60;;
45863;SDS011;31579;52.354;16.974;2023-03-11T03:19:21;7.60;;;5.00;;
45863;SDS011;31579;52.354;16.974;2023-03-11T03:24:17;7.60;;;5.00;;
45863;SDS011;31579;52.354;16.974;2023-03-11T03:29:17;7.10;;;4.70;;
45863;SDS011;31579;52.354;16.974;2023-03-11T03:32:07;7.10;;;4.70;;
45863;SDS011;31579;52.354;16.974;2023-03-11T03:37:05;7.10;;;4.70;;
45863;SDS011;31579;52.354;16.974;2023-03-11T03:42:06;12.90;;;7.20;;
45863;SDS011;31579;52.354;16.974;2023-03-11T03:47:05;12.90;;;7.20;;
45863;SDS011;31579;52.354;16.974;2023-03-11T03:52:06;32.70;;;17.20;;
45863;SDS011;31579;52.354;16.974;2023-03-11T03:57:05;32.70;;;17.20;;
45863;SDS011;31579;52.354;16.974;2023-03-11T04:02:05;35.50;;;18.50;;
45863;SDS011;31579;52.354;16.974;2023-03-11T04:07:06;35.50;;;18.50;;
45863;SDS011;31579;52.354;16.974;2023-03-11T04:12:06;35.30;;;16.90;;
45863;SDS011;31579;52.354;16.974;2023-03-11T04:17:06;35.30;;;16.90;;
45863;SDS011;31579;52.354;16.974;2023-03-11T04:22:05;27.60;;;13.50;;
45863;SDS011;31579;52.354;16.974;2023-03-11T04:27:05;27.60;;;13.50;;
45863;SDS011;31579;52.354;16.974;2023-03-11T04:32:06;21.00;;;11.10;;
45863;SDS011;31579;52.354;16.974;2023-03-11T04:37:05;21.00;;;11.10;;
45863;SDS011;31579;52.354;16.974;2023-03-11T04:42:10;21.00;;;11.10;;
45863;SDS011;31579;52.354;16.974;2023-03-11T04:47:10;21.00;;;11.10;;
45863;SDS011;31579;52.354;16.974;2023-03-11T04:52:10;10.90;;;5.50;;
45863;SDS011;31579;52.354;16.974;2023-03-11T04:57:10;10.90;;;5.50;;
45863;SDS011;31579;52.354;16.974;2023-03-11T05:02:10;9.40;;;4.70;;
45863;SDS011;31579;52.354;16.974;2023-03-11T05:07:10;9.40;;;4.70;;
45863;SDS011;31579;52.354;16.974;2023-03-11T05:12:10;9.90;;;4.10;;
45863;SDS011;31579;52.354;16.974;2023-03-11T05:17:10;9.90;;;4.10;;
45863;SDS011;31579;52.354;16.974;2023-03-11T05:22:10;7.50;;;4.10;;
45863;SDS011;31579;52.354;16.974;2023-03-11T05:27:10;7.50;;;4.10;;
45863;SDS011;31579;52.354;16.974;2023-03-11T05:32:10;7.10;;;4.30;;
45863;SDS011;31579;52.354;16.974;2023-03-11T05:37:10;7.10;;;4.30;;
45863;SDS011;31579;52.354;16.974;2023-03-11T05:42:10;7.20;;;4.40;;
45863;SDS011;31579;52.354;16.974;2023-03-11T05:47:10;7.20;;;4.40;;
45863;SDS011;31579;52.354;16.974;2023-03-11T05:52:10;9.80;;;5.90;;
45863;SDS011;31579;52.354;16.974;2023-03-11T05:57:13;9.80;;;5.90;;
45863;SDS011;31579;52.354;16.974;2023-03-11T06:02:10;9.90;;;5.80;;
45863;SDS011;31579;52.354;16.974;2023-03-11T06:07:10;9.90;;;5.80;;
45863;SDS011;31579;52.354;16.974;2023-03-11T06:12:10;12.20;;;6.80;;
45863;SDS011;31579;52.354;16.974;2023-03-11T06:17:10;12.20;;;6.80;;
45863;SDS011;31579;52.354;16.974;2023-03-11T06:22:10;12.20;;;6.50;;
45863;SDS011;31579;52.354;16.974;2023-03-11T06:27:10;12.20;;;6.50;;
45863;SDS011;31579;52.354;16.974;2023-03-11T06:32:10;12.80;;;6.80;;
45863;SDS011;31579;52.354;16.974;2023-03-11T06:37:10;12.80;;;6.80;;
45863;SDS011;31579;52.354;16.974;2023-03-11T06:42:10;10.50;;;6.10;;
45863;SDS011;31579;52.354;16.974;2023-03-11T06:47:10;10.50;;;6.10;;
45863;SDS011;31579;52.354;16.974;2023-03-11T06:52:10;11.80;;;6.30;;
45863;SDS011;31579;52.354;16.974;2023-03-11T06:57:10;11.80;;;6.30;;
45863;SDS011;31579;52.354;16.974;2023-03-11T07:02:11;9.80;;;6.00;;
45863;SDS011;31579;52.354;16.974;2023-03-11T07:07:10;9.80;;;6.00;;
45863;SDS011;31579;52.354;16.974;2023-03-11T07:12:10;11.80;;;6.90;;
45863;SDS011;31579;52.354;16.974;2023-03-11T07:17:10;11.80;;;6.90;;
45863;SDS011;31579;52.354;16.974;2023-03-11T07:22:10;11.90;;;7.00;;
45863;SDS011;31579;52.354;16.974;2023-03-11T07:27:10;11.90;;;7.00;;
45863;SDS011;31579;52.354;16.974;2023-03-11T07:32:10;12.80;;;7.20;;
45863;SDS011;31579;52.354;16.974;2023-03-11T07:37:10;12.80;;;7.20;;
45863;SDS011;31579;52.354;16.974;2023-03-11T07:42:10;11.90;;;6.80;;
45863;SDS011;31579;52.354;16.974;2023-03-11T07:47:10;11.90;;;6.80;;
45863;SDS011;31579;52.354;16.974;2023-03-11T07:52:10;9.60;;;5.90;;
45863;SDS011;31579;52.354;16.974;2023-03-11T07:57:10;9.60;;;5.90;;
45863;SDS011;31579;52.354;16.974;2023-03-11T07:58:06;9.60;;;5.90;;
45863;SDS011;31579;52.354;16.974;2023-03-11T08:03:05;11.50;;;6.50;;
45863;SDS011;31579;52.354;16.974;2023-03-11T08:08:05;11.90;;;6.60;;
45863;SDS011;31579;52.354;16.974;2023-03-11T08:13:05;11.90;;;6.60;;
45863;SDS011;31579;52.354;16.974;2023-03-11T08:18:05;9.90;;;5.10;;
45863;SDS011;31579;52.354;16.974;2023-03-11T08:23:05;9.90;;;5.10;;
45863;SDS011;31579;52.354;16.974;2023-03-11T08:28:05;9.60;;;5.00;;
45863;SDS011;31579;52.354;16.974;2023-03-11T08:33:05;9.60;;;5.00;;
45863;SDS011;31579;52.354;16.974;2023-03-11T08:38:05;9.50;;;5.50;;
45863;SDS011;31579;52.354;16.974;2023-03-11T08:39:22;9.50;;;5.50;;
45863;SDS011;31579;52.354;16.974;2023-03-11T08:44:20;9.50;;;5.50;;
45863;SDS011;31579;52.354;16.974;2023-03-11T08:49:20;9.50;;;5.10;;
45863;SDS011;31579;52.354;16.974;2023-03-11T08:54:20;9.50;;;5.10;;
45863;SDS011;31579;52.354;16.974;2023-03-11T09:04:29;7.90;;;4.40;;
45863;SDS011;31579;52.354;16.974;2023-03-11T09:09:29;9.60;;;4.80;;
45863;SDS011;31579;52.354;16.974;2023-03-11T09:14:29;9.60;;;4.80;;
45863;SDS011;31579;52.354;16.974;2023-03-11T09:19:29;9.00;;;5.10;;
45863;SDS011;31579;52.354;16.974;2023-03-11T09:24:31;9.00;;;5.10;;
45863;SDS011;31579;52.354;16.974;2023-03-11T09:29:29;10.10;;;4.60;;
45863;SDS011;31579;52.354;16.974;2023-03-11T09:34:29;10.10;;;4.60;;
45863;SDS011;31579;52.354;16.974;2023-03-11T09:41:55;8.80;;;4.50;;
45863;SDS011;31579;52.354;16.974;2023-03-11T09:47:04;8.80;;;4.50;;
45863;SDS011;31579;52.354;16.974;2023-03-11T09:52:00;7.30;;;4.20;;
45863;SDS011;31579;52.354;16.974;2023-03-11T09:56:52;7.30;;;4.20;;
45863;SDS011;31579;52.354;16.974;2023-03-11T10:01:52;7.70;;;3.70;;
45863;SDS011;31579;52.354;16.974;2023-03-11T10:06:52;7.70;;;3.70;;
45863;SDS011;31579;52.354;16.974;2023-03-11T10:12:01;8.60;;;4.80;;
45863;SDS011;31579;52.354;16.974;2023-03-11T10:21:59;8.70;;;5.20;;
45863;SDS011;31579;52.354;16.974;2023-03-11T10:22:05;8.70;;;5.20;;
45863;SDS011;31579;52.354;16.974;2023-03-11T10:27:00;8.70;;;5.20;;
45863;SDS011;31579;52.354;16.974;2023-03-11T10:31:59;7.40;;;4.30;;
45863;SDS011;31579;52.354;16.974;2023-03-11T10:37:02;7.40;;;4.30;;
45863;SDS011;31579;52.354;16.974;2023-03-11T10:46:59;9.80;;;5.50;;
45863;SDS011;31579;52.354;16.974;2023-03-11T10:51:59;8.60;;;4.30;;
45863;SDS011;31579;52.354;16.974;2023-03-11T10:57:00;8.60;;;4.30;;
45863;SDS011;31579;52.354;16.974;2023-03-11T11:07:04;11.50;;;4.80;;
45863;SDS011;31579;52.354;16.974;2023-03-11T11:16:59;11.20;;;5.20;;
45863;SDS011;31579;52.354;16.974;2023-03-11T11:22:02;8.90;;;4.10;;
45863;SDS011;31579;52.354;16.974;2023-03-11T11:36:59;9.40;;;5.00;;
45863;SDS011;31579;52.354;16.974;2023-03-11T11:41:59;8.50;;;4.20;;
45863;SDS011;31579;52.354;16.974;2023-03-11T11:47:03;8.50;;;4.20;;
45863;SDS011;31579;52.354;16.974;2023-03-11T11:56:59;7.20;;;3.40;;
45863;SDS011;31579;52.354;16.974;2023-03-11T12:16:59;4.60;;;2.50;;
45863;SDS011;31579;52.354;16.974;2023-03-11T12:27:00;6.70;;;3.00;;
45863;SDS011;31579;52.354;16.974;2023-03-11T12:31:59;4.50;;;2.20;;
45863;SDS011;31579;52.354;16.974;2023-03-11T12:36:59;4.50;;;2.20;;
45863;SDS011;31579;52.354;16.974;2023-03-11T12:47:01;6.00;;;2.50;;
45863;SDS011;31579;52.354;16.974;2023-03-11T12:52:02;5.60;;;2.10;;
45863;SDS011;31579;52.354;16.974;2023-03-11T12:57:00;5.60;;;2.10;;
45863;SDS011;31579;52.354;16.974;2023-03-11T13:07:11;4.20;;;1.60;;
45863;SDS011;31579;52.354;16.974;2023-03-11T13:11:59;6.30;;;1.80;;
45863;SDS011;31579;52.354;16.974;2023-03-11T13:21:59;6.90;;;2.10;;
45863;SDS011;31579;52.354;16.974;2023-03-11T13:32:02;5.10;;;1.90;;
45863;SDS011;31579;52.354;16.974;2023-03-11T13:41:59;4.70;;;2.10;;
45863;SDS011;31579;52.354;16.974;2023-03-11T13:47:01;5.70;;;2.50;;
45863;SDS011;31579;52.354;16.974;2023-03-11T13:51:59;5.70;;;2.50;;
45863;SDS011;31579;52.354;16.974;2023-03-11T13:57:02;5.40;;;2.50;;
45863;SDS011;31579;52.354;16.974;2023-03-11T14:02:00;5.40;;;2.50;;
45863;SDS011;31579;52.354;16.974;2023-03-11T14:06:59;5.70;;;2.30;;
45863;SDS011;31579;52.354;16.974;2023-03-11T14:16:59;6.10;;;1.60;;
45863;SDS011;31579;52.354;16.974;2023-03-11T14:21:59;6.10;;;1.60;;
45863;SDS011;31579;52.354;16.974;2023-03-11T14:26:59;6.20;;;1.50;;
45863;SDS011;31579;52.354;16.974;2023-03-11T14:32:15;6.20;;;1.50;;
45863;SDS011;31579;52.354;16.974;2023-03-11T14:36:59;4.20;;;1.50;;
45863;SDS011;31579;52.354;16.974;2023-03-11T14:47:10;4.20;;;1.50;;
45863;SDS011;31579;52.354;16.974;2023-03-11T14:52:01;4.40;;;1.30;;
45863;SDS011;31579;52.354;16.974;2023-03-11T15:02:05;5.30;;;1.80;;
45863;SDS011;31579;52.354;16.974;2023-03-11T15:07:03;4.50;;;1.60;;
45863;SDS011;31579;52.354;16.974;2023-03-11T15:11:59;4.50;;;1.60;;
45863;SDS011;31579;52.354;16.974;2023-03-11T15:16:32;4.50;;;1.60;;
45863;SDS011;31579;52.354;16.974;2023-03-11T15:21:29;6.60;;;2.50;;
45863;SDS011;31579;52.354;16.974;2023-03-11T15:26:30;6.60;;;2.50;;
45863;SDS011;31579;52.354;16.974;2023-03-11T15:31:31;6.10;;;2.50;;
45863;SDS011;31579;52.354;16.974;2023-03-11T15:37:24;6.00;;;2.40;;
45863;SDS011;31579;52.354;16.974;2023-03-11T15:42:25;6.00;;;2.40;;
45863;SDS011;31579;52.354;16.974;2023-03-11T15:47:24;6.60;;;3.70;;
45863;SDS011;31579;52.354;16.974;2023-03-11T15:50:35;6.60;;;3.70;;
45863;SDS011;31579;52.354;16.974;2023-03-11T15:55:33;6.60;;;3.70;;
45863;SDS011;31579;52.354;16.974;2023-03-11T16:00:33;7.80;;;4.40;;
45863;SDS011;31579;52.354;16.974;2023-03-11T16:05:33;7.80;;;4.40;;
45863;SDS011;31579;52.354;16.974;2023-03-11T16:10:33;8.50;;;4.80;;
45863;SDS011;31579;52.354;16.974;2023-03-11T16:15:37;8.50;;;4.80;;
45863;SDS011;31579;52.354;16.974;2023-03-11T16:25:38;8.20;;;4.40;;
45863;SDS011;31579;52.354;16.974;2023-03-11T16:30:37;8.80;;;5.30;;
45863;SDS011;31579;52.354;16.974;2023-03-11T16:35:37;8.80;;;5.30;;
45863;SDS011;31579;52.354;16.974;2023-03-11T16:40:37;10.30;;;4.80;;
45863;SDS011;31579;52.354;16.974;2023-03-11T16:45:37;10.30;;;4.80;;
45863;SDS011;31579;52.354;16.974;2023-03-11T16:50:37;11.60;;;6.00;;
45863;SDS011;31579;52.354;16.974;2023-03-11T16:59:01;15.20;;;7.80;;
45863;SDS011;31579;52.354;16.974;2023-03-11T17:04:01;15.20;;;7.80;;
45863;SDS011;31579;52.354;16.974;2023-03-11T17:09:01;19.80;;;9.80;;
45863;SDS011;31579;52.354;16.974;2023-03-11T17:14:01;19.80;;;9.80;;
45863;SDS011;31579;52.354;16.974;2023-03-11T17:19:01;18.10;;;9.30;;
45863;SDS011;31579;52.354;16.974;2023-03-11T17:24:01;18.10;;;9.30;;
45863;SDS011;31579;52.354;16.974;2023-03-11T17:29:01;18.80;;;9.60;;
45863;SDS011;31579;52.354;16.974;2023-03-11T17:34:01;18.80;;;9.60;;
45863;SDS011;31579;52.354;16.974;2023-03-11T17:39:01;20.90;;;9.20;;
45863;SDS011;31579;52.354;16.974;2023-03-11T17:44:01;20.90;;;9.20;;
45863;SDS011;31579;52.354;16.974;2023-03-11T17:49:01;15.50;;;8.20;;
45863;SDS011;31579;52.354;16.974;2023-03-11T17:54:01;15.50;;;8.20;;
45863;SDS011;31579;52.354;16.974;2023-03-11T17:59:01;23.50;;;10.40;;
45863;SDS011;31579;52.354;16.974;2023-03-11T18:04:01;23.50;;;10.40;;
45863;SDS011;31579;52.354;16.974;2023-03-11T18:09:01;18.60;;;9.30;;
45863;SDS011;31579;52.354;16.974;2023-03-11T18:09:58;18.60;;;9.30;;
45863;SDS011;31579;52.354;16.974;2023-03-11T18:14:56;18.60;;;9.30;;
45863;SDS011;31579;52.354;16.974;2023-03-11T18:19:58;18.80;;;8.80;;
45863;SDS011;31579;52.354;16.974;2023-03-11T18:24:56;18.80;;;8.80;;
45863;SDS011;31579;52.354;16.974;2023-03-11T18:29:56;20.80;;;9.20;;
45863;SDS011;31579;52.354;16.974;2023-03-11T18:34:56;20.80;;;9.20;;
45863;SDS011;31579;52.354;16.974;2023-03-11T18:39:56;22.20;;;10.50;;
45863;SDS011;31579;52.354;16.974;2023-03-11T18:44:56;22.20;;;10.50;;
45863;SDS011;31579;52.354;16.974;2023-03-11T18:50:01;25.10;;;12.20;;
45863;SDS011;31579;52.354;16.974;2023-03-11T18:54:56;25.10;;;12.20;;
45863;SDS011;31579;52.354;16.974;2023-03-11T18:59:56;27.50;;;13.60;;
45863;SDS011;31579;52.354;16.974;2023-03-11T19:04:48;27.50;;;13.60;;
45863;SDS011;31579;52.354;16.974;2023-03-11T19:09:57;28.50;;;13.20;;
45863;SDS011;31579;52.354;16.974;2023-03-11T19:14:56;28.50;;;13.20;;
45863;SDS011;31579;52.354;16.974;2023-03-11T19:19:56;23.60;;;11.40;;
45863;SDS011;31579;52.354;16.974;2023-03-11T19:24:56;23.60;;;11.40;;
45863;SDS011;31579;52.354;16.974;2023-03-11T19:29:56;26.90;;;12.80;;
45863;SDS011;31579;52.354;16.974;2023-03-11T19:34:56;26.90;;;12.80;;
45863;SDS011;31579;52.354;16.974;2023-03-11T19:39:56;28.60;;;10.90;;
45863;SDS011;31579;52.354;16.974;2023-03-11T19:44:56;28.60;;;10.90;;
45863;SDS011;31579;52.354;16.974;2023-03-11T19:49:56;29.10;;;11.90;;
45863;SDS011;31579;52.354;16.974;2023-03-11T19:54:56;29.10;;;11.90;;
45863;SDS011;31579;52.354;16.974;2023-03-11T19:59:56;26.80;;;10.30;;
45863;SDS011;31579;52.354;16.974;2023-03-11T20:04:56;26.80;;;10.30;;
45863;SDS011;31579;52.354;16.974;2023-03-11T20:10:00;19.40;;;9.20;;
45863;SDS011;31579;52.354;16.974;2023-03-11T20:14:56;19.40;;;9.20;;
45863;SDS011;31579;52.354;16.974;2023-03-11T20:19:56;20.70;;;9.50;;
45863;SDS011;31579;52.354;16.974;2023-03-11T20:24:56;20.70;;;9.50;;
45863;SDS011;31579;52.354;16.974;2023-03-11T20:29:57;18.00;;;9.20;;
45863;SDS011;31579;52.354;16.974;2023-03-11T20:33:04;18.00;;;9.20;;
45863;SDS011;31579;52.354;16.974;2023-03-11T20:38:02;21.70;;;10.30;;
45863;SDS011;31579;52.354;16.974;2023-03-11T20:43:02;21.70;;;10.30;;
45863;SDS011;31579;52.354;16.974;2023-03-11T20:48:02;25.80;;;11.10;;
45863;SDS011;31579;52.354;16.974;2023-03-11T20:53:02;25.80;;;11.10;;
45863;SDS011;31579;52.354;16.974;2023-03-11T20:58:02;22.60;;;9.90;;
45863;SDS011;31579;52.354;16.974;2023-03-11T21:03:02;22.60;;;9.90;;
45863;SDS011;31579;52.354;16.974;2023-03-11T21:08:02;21.00;;;10.30;;
45863;SDS011;31579;52.354;16.974;2023-03-11T21:13:02;21.00;;;10.30;;
45863;SDS011;31579;52.354;16.974;2023-03-11T21:18:02;23.20;;;10.90;;
45863;SDS011;31579;52.354;16.974;2023-03-11T21:23:02;23.20;;;10.90;;
45863;SDS011;31579;52.354;16.974;2023-03-11T21:28:02;20.60;;;9.80;;
45863;SDS011;31579;52.354;16.974;2023-03-11T21:33:53;20.60;;;9.80;;
45863;SDS011;31579;52.354;16.974;2023-03-11T21:38:52;20.20;;;9.30;;
45863;SDS011;31579;52.354;16.974;2023-03-11T21:43:53;20.20;;;9.30;;
45863;SDS011;31579;52.354;16.974;2023-03-11T21:48:52;25.20;;;11.00;;
45863;SDS011;31579;52.354;16.974;2023-03-11T21:53:52;25.20;;;11.00;;
45863;SDS011;31579;52.354;16.974;2023-03-11T21:58:52;21.50;;;10.00;;
45863;SDS011;31579;52.354;16.974;2023-03-11T22:03:52;21.50;;;10.00;;
45863;SDS011;31579;52.354;16.974;2023-03-11T22:08:52;20.40;;;8.90;;
45863;SDS011;31579;52.354;16.974;2023-03-11T22:15:09;20.40;;;8.90;;
45863;SDS011;31579;52.354;16.974;2023-03-11T22:20:11;17.00;;;8.00;;
45863;SDS011;31579;52.354;16.974;2023-03-11T22:25:09;17.00;;;8.00;;
45863;SDS011;31579;52.354;16.974;2023-03-11T22:30:09;16.20;;;7.00;;
45863;SDS011;31579;52.354;16.974;2023-03-11T22:35:09;16.20;;;7.00;;
45863;SDS011;31579;52.354;16.974;2023-03-11T22:40:09;16.00;;;6.90;;
45863;SDS011;31579;52.354;16.974;2023-03-11T22:45:09;16.00;;;6.90;;
45863;SDS011;31579;52.354;16.974;2023-03-11T22:50:09;14.30;;;7.00;;
45863;SDS011;31579;52.354;16.974;2023-03-11T22:55:09;14.30;;;7.00;;
45863;SDS011;31579;52.354;16.974;2023-03-11T23:05:10;15.50;;;6.50;;
45863;SDS011;31579;52.354;16.974;2023-03-11T23:10:15;18.10;;;6.80;;
45863;SDS011;31579;52.354;16.974;2023-03-11T23:15:12;18.10;;;6.80;;
45863;SDS011;31579;52.354;16.974;2023-03-11T23:20:13;14.90;;;6.90;;
45863;SDS011;31579;52.354;16.974;2023-03-11T23:25:11;14.90;;;6.90;;
45863;SDS011;31579;52.354;16.974;2023-03-11T23:30:14;14.60;;;6.60;;
45863;SDS011;31579;52.354;16.974;2023-03-11T23:35:10;14.60;;;6.60;;
45863;SDS011;31579;52.354;16.974;2023-03-11T23:40:09;12.40;;;6.00;;
45863;SDS011;31579;52.354;16.974;2023-03-11T23:45:09;12.40;;;6.00;;
45863;SDS011;31579;52.354;16.974;2023-03-11T23:50:11;13.80;;;5.60;;
45863;SDS011;31579;52.354;16.974;2023-03-11T23:55:09;13.80;;;5.60;;
